createdAt,value
2018-01-24T00:00:40.728Z,4.00
2018-01-24T00:03:09.676Z,4.00
2018-01-24T00:05:37.865Z,3.90
2018-01-24T00:08:06.006Z,3.90
2018-01-24T00:10:34.218Z,3.90
2018-01-24T00:13:04.317Z,3.90
2018-01-24T00:15:32.438Z,3.90
2018-01-24T00:18:01.324Z,3.90
2018-01-24T00:20:30.218Z,4.00
2018-01-24T00:22:59.105Z,4.00
2018-01-24T00:25:28.013Z,4.00
2018-01-24T00:27:56.129Z,3.90
2018-01-24T00:30:24.266Z,4.00
2018-01-24T00:32:52.386Z,4.00
2018-01-24T00:35:20.557Z,4.00
2018-01-24T00:37:48.666Z,4.00
2018-01-24T00:40:16.829Z,4.00
2018-01-24T00:42:44.949Z,4.00
2018-01-24T00:45:13.191Z,4.00
2018-01-24T00:47:41.388Z,3.90
2018-01-24T00:50:09.591Z,3.90
2018-01-24T00:52:37.751Z,4.00
2018-01-24T00:55:05.897Z,4.00
2018-01-24T00:57:34.096Z,4.00
2018-01-24T01:00:02.282Z,3.90
2018-01-24T01:02:30.437Z,4.00
2018-01-24T01:04:58.579Z,4.00
2018-01-24T01:07:27.069Z,4.00
2018-01-24T01:09:55.265Z,4.10
2018-01-24T01:12:23.446Z,4.10
2018-01-24T01:14:51.566Z,4.00
2018-01-24T01:17:19.696Z,4.10
2018-01-24T01:19:47.845Z,4.00
2018-01-24T01:22:16.036Z,4.10
2018-01-24T01:24:44.213Z,4.00
2018-01-24T01:27:13.310Z,4.00
2018-01-24T01:29:41.451Z,4.00
2018-01-24T01:32:09.799Z,4.00
2018-01-24T01:34:38.206Z,4.00
2018-01-24T01:37:06.399Z,4.00
2018-01-24T01:39:35.310Z,4.00
2018-01-24T01:42:04.321Z,4.00
2018-01-24T01:44:32.466Z,4.00
2018-01-24T01:47:01.362Z,4.00
2018-01-24T01:49:29.707Z,4.00
2018-01-24T01:51:57.821Z,4.00
2018-01-24T01:54:25.942Z,4.10
2018-01-24T01:56:54.077Z,4.10
2018-01-24T01:59:22.203Z,4.20
2018-01-24T02:01:50.324Z,4.20
2018-01-24T02:04:18.464Z,4.20
2018-01-24T02:06:47.358Z,4.20
2018-01-24T02:09:16.245Z,4.20
2018-01-24T02:11:45.146Z,4.20
2018-01-24T02:14:13.270Z,4.20
2018-01-24T02:16:41.416Z,4.30
2018-01-24T02:19:09.541Z,4.40
2018-01-24T02:21:38.416Z,4.40
2018-01-24T02:24:06.537Z,4.40
2018-01-24T02:26:34.673Z,4.40
2018-01-24T02:29:03.572Z,4.40
2018-01-24T02:31:32.539Z,4.40
2018-01-24T02:34:00.684Z,4.40
2018-01-24T02:36:28.801Z,4.50
2018-01-24T02:39:15.280Z,4.50
2018-01-24T02:41:43.404Z,4.50
2018-01-24T02:44:11.601Z,4.50
2018-01-24T02:46:39.726Z,4.60
2018-01-24T02:49:08.622Z,4.70
2018-01-24T02:51:36.752Z,4.70
2018-01-24T02:54:04.908Z,4.70
2018-01-24T02:56:33.378Z,4.80
2018-01-24T02:59:01.478Z,4.80
2018-01-24T03:01:29.621Z,4.80
2018-01-24T03:03:58.112Z,4.80
2018-01-24T03:06:26.235Z,4.70
2018-01-24T03:08:54.353Z,4.70
2018-01-24T03:11:22.497Z,4.70
2018-01-24T03:13:50.621Z,4.70
2018-01-24T03:16:18.769Z,4.70
2018-01-24T03:18:46.882Z,4.70
2018-01-24T03:21:15.013Z,4.70
2018-01-24T03:23:43.144Z,4.70
2018-01-24T03:26:12.034Z,4.60
2018-01-24T03:28:40.224Z,4.60
2018-01-24T03:31:08.340Z,4.70
2018-01-24T03:33:36.486Z,4.70
2018-01-24T03:36:04.601Z,4.70
2018-01-24T03:38:33.512Z,4.60
2018-01-24T03:41:01.756Z,4.60
2018-01-24T03:43:29.880Z,4.60
2018-01-24T03:45:58.020Z,4.60
2018-01-24T03:48:26.166Z,4.70
2018-01-24T03:50:54.274Z,4.70
2018-01-24T03:53:22.404Z,4.70
2018-01-24T03:55:50.535Z,4.60
2018-01-24T03:58:18.676Z,4.70
2018-01-24T04:00:46.832Z,4.70
2018-01-24T04:03:15.701Z,4.80
2018-01-24T04:05:43.850Z,4.80
2018-01-24T04:08:11.968Z,4.90
2018-01-24T04:10:40.868Z,4.90
2018-01-24T04:13:09.031Z,4.90
2018-01-24T04:15:37.919Z,4.90
2018-01-24T04:18:06.820Z,4.90
2018-01-24T04:20:34.974Z,4.90
2018-01-24T04:23:03.090Z,4.90
2018-01-24T04:25:31.220Z,4.90
2018-01-24T04:28:00.112Z,4.90
2018-01-24T04:30:29.017Z,4.90
2018-01-24T04:32:57.132Z,4.90
2018-01-24T04:35:25.277Z,5.00
2018-01-24T04:37:53.393Z,4.90
2018-01-24T04:40:21.597Z,4.90
2018-01-24T04:42:50.513Z,4.90
2018-01-24T04:45:18.629Z,4.90
2018-01-24T04:47:46.776Z,5.00
2018-01-24T04:50:14.890Z,4.90
2018-01-24T04:52:43.017Z,4.90
2018-01-24T04:55:11.250Z,4.90
2018-01-24T04:57:39.371Z,5.00
2018-01-24T05:00:08.397Z,5.00
2018-01-24T05:02:37.297Z,5.00
2018-01-24T05:05:05.452Z,5.00
2018-01-24T05:07:33.578Z,5.10
2018-01-24T05:10:01.693Z,5.10
2018-01-24T05:12:29.839Z,5.10
2018-01-24T05:14:57.960Z,5.10
2018-01-24T05:17:26.090Z,5.10
2018-01-24T05:19:54.234Z,5.10
2018-01-24T05:22:22.361Z,5.00
2018-01-24T05:24:51.308Z,5.10
2018-01-24T05:27:19.401Z,5.00
2018-01-24T05:29:47.563Z,5.00
2018-01-24T05:32:15.768Z,5.10
2018-01-24T05:34:44.750Z,5.10
2018-01-24T05:37:13.744Z,5.10
2018-01-24T05:39:42.019Z,5.10
2018-01-24T05:42:10.940Z,5.10
2018-01-24T05:44:39.086Z,5.10
2018-01-24T05:47:07.970Z,5.10
2018-01-24T05:49:36.925Z,5.20
2018-01-24T05:52:05.057Z,5.10
2018-01-24T05:54:33.176Z,5.10
2018-01-24T05:57:01.313Z,5.10
2018-01-24T05:59:29.424Z,5.20
2018-01-24T06:01:57.664Z,5.20
2018-01-24T06:04:25.789Z,5.20
2018-01-24T06:06:53.921Z,5.20
2018-01-24T06:09:22.034Z,5.20
2018-01-24T06:11:50.940Z,5.20
2018-01-24T06:14:19.055Z,5.20
2018-01-24T06:16:47.198Z,5.10
2018-01-24T06:19:15.368Z,5.10
2018-01-24T06:21:43.626Z,5.20
2018-01-24T06:24:11.748Z,5.20
2018-01-24T06:26:39.896Z,5.10
2018-01-24T06:29:08.037Z,5.20
2018-01-24T06:31:36.144Z,5.10
2018-01-24T06:34:04.270Z,5.20
2018-01-24T06:36:33.144Z,5.20
2018-01-24T06:39:02.038Z,5.20
2018-01-24T06:41:30.912Z,5.20
2018-01-24T06:43:59.061Z,5.20
2018-01-24T06:46:27.181Z,5.20
2018-01-24T06:48:56.424Z,5.20
2018-01-24T06:51:24.522Z,5.20
2018-01-24T06:53:52.652Z,5.20
2018-01-24T06:56:20.769Z,5.20
2018-01-24T06:58:48.909Z,5.20
2018-01-24T07:01:17.033Z,5.30
2018-01-24T07:03:45.190Z,5.30
2018-01-24T07:06:13.305Z,5.30
2018-01-24T07:08:41.824Z,5.30
2018-01-24T07:11:09.921Z,5.40
2018-01-24T07:13:50.686Z,5.20
2018-01-24T07:16:18.811Z,5.20
2018-01-24T07:18:46.922Z,5.30
2018-01-24T07:21:15.812Z,5.20
2018-01-24T07:23:44.698Z,5.20
2018-01-24T07:26:12.821Z,5.20
2018-01-24T07:28:40.935Z,5.20
2018-01-24T07:31:09.059Z,5.20
2018-01-24T07:33:37.180Z,5.20
2018-01-24T07:36:05.297Z,5.10
2018-01-24T07:38:33.416Z,5.20
2018-01-24T07:41:01.585Z,5.20
2018-01-24T07:43:29.701Z,5.20
2018-01-24T07:45:57.841Z,5.30
2018-01-24T07:48:26.722Z,5.40
2018-01-24T07:50:54.829Z,5.40
2018-01-24T07:53:22.975Z,5.90
2018-01-24T07:55:51.861Z,7.20
2018-01-24T07:58:20.756Z,7.90
2018-01-24T08:00:49.641Z,8.30
2018-01-24T08:03:18.541Z,8.90
2018-01-24T08:05:47.425Z,9.40
2018-01-24T08:08:15.540Z,9.40
2018-01-24T08:10:43.652Z,9.40
2018-01-24T08:13:11.772Z,8.80
2018-01-24T08:15:39.887Z,9.20
2018-01-24T08:18:08.804Z,9.20
2018-01-24T08:20:37.703Z,9.30
2018-01-24T08:23:06.589Z,10.30
2018-01-24T08:25:34.699Z,10.30
2018-01-24T08:28:02.839Z,11.90
2018-01-24T08:30:31.064Z,12.20
2018-01-24T08:32:59.185Z,12.20
2018-01-24T08:35:27.317Z,10.80
2018-01-24T08:37:55.441Z,12.30
2018-01-24T08:40:23.592Z,11.80
2018-01-24T08:42:51.749Z,10.50
2018-01-24T08:45:20.648Z,8.40
2018-01-24T08:47:49.552Z,8.00
2018-01-24T08:50:17.679Z,8.00
2018-01-24T08:52:45.799Z,8.00
2018-01-24T08:55:13.921Z,8.20
2018-01-24T08:57:42.424Z,8.30
2018-01-24T09:00:29.271Z,8.10
2018-01-24T09:03:20.565Z,8.10
2018-01-24T09:06:12.689Z,8.60
2018-01-24T09:22:43.912Z,9.90
2018-01-24T09:25:24.996Z,12.60
2018-01-24T09:27:53.890Z,14.40
2018-01-24T09:30:22.018Z,14.40
2018-01-24T09:32:50.148Z,14.90
2018-01-24T09:35:18.264Z,14.30
2018-01-24T09:37:46.417Z,14.40
2018-01-24T09:40:14.533Z,14.30
2018-01-24T09:42:43.432Z,12.70
2018-01-24T09:45:11.573Z,12.70
2018-01-24T09:47:39.705Z,15.10
2018-01-24T09:50:07.820Z,14.90
2018-01-24T09:52:36.711Z,15.00
2018-01-24T09:55:05.593Z,14.40
2018-01-24T09:57:33.717Z,14.40
2018-01-24T10:00:01.918Z,14.60
2018-01-24T10:02:30.047Z,16.30
2018-01-24T10:04:58.166Z,16.80
2018-01-24T10:07:26.303Z,17.90
2018-01-24T10:09:54.424Z,17.30
2018-01-24T10:12:22.558Z,15.70
2018-01-24T10:14:50.684Z,17.20
2018-01-24T10:17:19.571Z,16.10
2018-01-24T10:19:48.482Z,15.60
2018-01-24T10:22:17.696Z,16.30
2018-01-24T10:24:45.805Z,16.30
2018-01-24T10:27:13.930Z,17.40
2018-01-24T10:29:42.066Z,17.00
2018-01-24T10:32:10.959Z,15.30
2018-01-24T10:34:39.850Z,16.70
2018-01-24T10:37:08.732Z,15.40
2018-01-24T10:39:37.641Z,15.80
2018-01-24T10:42:05.760Z,15.70
2018-01-24T10:44:33.903Z,15.70
2018-01-24T10:47:02.023Z,17.30
2018-01-24T10:49:30.169Z,19.20
2018-01-24T10:51:58.291Z,18.00
2018-01-24T10:54:27.185Z,18.60
2018-01-24T10:56:55.322Z,18.60
2018-01-24T10:59:25.020Z,18.80
2018-01-24T11:01:53.128Z,18.80
2018-01-24T11:04:22.015Z,18.60
2018-01-24T11:06:50.914Z,18.20
2018-01-24T11:09:19.043Z,18.10
2018-01-24T11:11:47.169Z,17.80
2018-01-24T11:14:15.312Z,17.20
2018-01-24T11:16:43.449Z,17.80
2018-01-24T11:19:11.566Z,18.90
2018-01-24T11:21:40.461Z,18.20
2018-01-24T11:24:08.658Z,18.20
2018-01-24T11:26:37.158Z,18.00
2018-01-24T11:29:05.264Z,19.00
2018-01-24T11:31:33.393Z,19.60
2018-01-24T11:34:01.509Z,19.90
2018-01-24T11:36:29.640Z,20.10
2018-01-24T11:38:58.137Z,20.20
2018-01-24T11:41:26.252Z,20.20
2018-01-24T11:43:54.381Z,19.30
2018-01-24T11:46:24.092Z,19.20
2018-01-24T11:48:52.213Z,19.90
2018-01-24T11:51:20.332Z,19.40
2018-01-24T11:53:48.466Z,18.80
2018-01-24T11:56:16.588Z,18.90
2018-01-24T11:58:45.489Z,17.20
2018-01-24T12:01:14.374Z,17.00
2018-01-24T12:03:43.293Z,17.00
2018-01-24T12:06:11.400Z,17.00
2018-01-24T12:08:39.530Z,17.70
2018-01-24T12:11:07.650Z,16.40
2018-01-24T12:13:36.557Z,14.30
2018-01-24T12:16:04.731Z,14.20
2018-01-24T12:18:32.857Z,15.00
2018-01-24T12:21:01.745Z,17.00
2018-01-24T12:23:29.878Z,17.00
2018-01-24T12:25:58.011Z,17.30
2018-01-24T12:28:26.147Z,19.10
2018-01-24T12:30:54.261Z,18.00
2018-01-24T12:33:22.392Z,16.20
2018-01-24T12:35:50.530Z,15.50
2018-01-24T12:38:19.421Z,16.30
2018-01-24T12:40:48.313Z,16.00
2018-01-24T12:43:16.452Z,16.00
2018-01-24T12:45:44.577Z,16.90
2018-01-24T12:48:12.704Z,16.60
2018-01-24T12:50:41.585Z,15.20
2018-01-24T12:53:09.720Z,15.20
2018-01-24T12:55:37.844Z,15.10
2018-01-24T12:58:05.989Z,14.90
2018-01-24T13:00:34.106Z,13.90
2018-01-24T13:03:02.228Z,13.30
2018-01-24T13:05:30.352Z,14.30
2018-01-24T13:07:58.470Z,14.70
2018-01-24T13:10:26.658Z,15.40
2018-01-24T13:12:54.764Z,14.50
2018-01-24T13:15:22.888Z,15.00
2018-01-24T13:17:51.009Z,14.70
2018-01-24T13:20:19.137Z,14.30
2018-01-24T13:22:47.259Z,13.70
2018-01-24T13:25:15.372Z,13.60
2018-01-24T13:27:43.490Z,13.10
2018-01-24T13:30:11.622Z,13.10
2018-01-24T13:32:39.736Z,12.60
2018-01-24T13:35:07.884Z,12.10
2018-01-24T13:37:36.760Z,11.90
2018-01-24T13:40:05.669Z,11.60
2018-01-24T13:42:34.251Z,11.60
2018-01-24T13:45:03.178Z,11.70
2018-01-24T13:47:31.301Z,11.60
2018-01-24T13:50:00.257Z,11.50
2018-01-24T13:52:28.414Z,11.50
2018-01-24T13:54:56.524Z,11.50
2018-01-24T13:57:25.424Z,11.30
2018-01-24T13:59:54.337Z,11.40
2018-01-24T14:02:22.482Z,11.40
2018-01-24T14:04:50.624Z,11.30
2018-01-24T14:07:18.757Z,11.60
2018-01-24T14:09:46.870Z,11.60
2018-01-24T14:12:16.515Z,11.30
2018-01-24T14:14:44.699Z,11.40
2018-01-24T14:17:12.836Z,11.50
2018-01-24T14:19:41.806Z,11.40
2018-01-24T14:22:09.964Z,11.40
2018-01-24T14:24:38.107Z,11.40
2018-01-24T14:27:06.239Z,11.30
2018-01-24T14:29:34.365Z,11.20
2018-01-24T14:32:02.552Z,11.10
2018-01-24T14:34:30.671Z,11.20
2018-01-24T14:36:59.566Z,11.20
2018-01-24T14:39:27.688Z,11.20
2018-01-24T14:41:55.822Z,11.40
2018-01-24T14:44:23.952Z,11.20
2018-01-24T14:46:52.855Z,11.00
2018-01-24T14:49:21.748Z,11.10
2018-01-24T14:51:50.281Z,11.10
2018-01-24T14:54:18.396Z,11.10
2018-01-24T14:56:46.560Z,11.10
2018-01-24T14:59:15.452Z,10.90
2018-01-24T15:01:44.365Z,10.80
2018-01-24T15:04:12.478Z,10.80
2018-01-24T15:06:40.607Z,10.80
2018-01-24T15:09:08.732Z,10.80
2018-01-24T15:11:36.868Z,10.70
2018-01-24T15:14:05.385Z,10.60
2018-01-24T15:16:33.548Z,10.60
2018-01-24T15:19:01.671Z,10.50
2018-01-24T15:21:29.979Z,10.40
2018-01-24T15:23:58.096Z,10.30
2018-01-24T15:26:27.019Z,10.10
2018-01-24T15:28:55.111Z,10.10
2018-01-24T15:31:23.256Z,10.00
2018-01-24T15:33:51.365Z,9.80
2018-01-24T15:36:19.477Z,9.90
2018-01-24T15:38:47.630Z,9.70
2018-01-24T15:41:16.523Z,9.60
2018-01-24T15:43:45.416Z,9.70
2018-01-24T15:46:14.292Z,9.60
2018-01-24T15:48:42.416Z,9.60
2018-01-24T15:51:10.542Z,9.60
2018-01-24T15:53:39.440Z,9.40
2018-01-24T15:56:07.583Z,9.40
2018-01-24T15:58:35.694Z,9.40
2018-01-24T16:01:03.818Z,9.30
2018-01-24T16:03:31.955Z,9.20
2018-01-24T16:06:00.086Z,9.20
2018-01-24T16:08:28.205Z,9.10
2018-01-24T16:10:57.466Z,8.90
2018-01-24T16:13:25.577Z,8.90
2018-01-24T16:15:53.708Z,8.90
2018-01-24T16:18:21.832Z,8.80
2018-01-24T16:20:49.952Z,8.80
2018-01-24T16:23:18.089Z,8.70
2018-01-24T16:25:46.208Z,8.70
2018-01-24T16:28:14.361Z,8.60
2018-01-24T16:30:43.261Z,8.60
2018-01-24T16:33:11.416Z,8.60
2018-01-24T16:35:40.307Z,8.40
2018-01-24T16:38:09.412Z,8.40
2018-01-24T16:40:37.693Z,8.30
2018-01-24T16:43:05.821Z,8.40
2018-01-24T16:45:33.947Z,8.40
2018-01-24T16:48:02.081Z,8.40
2018-01-24T16:50:31.024Z,8.30
2018-01-24T16:52:59.183Z,8.30
2018-01-24T16:55:27.288Z,8.40
2018-01-24T16:57:55.395Z,8.30
2018-01-24T17:00:24.376Z,8.30
2018-01-24T17:02:53.269Z,8.20
2018-01-24T17:05:22.165Z,8.10
2018-01-24T17:07:51.129Z,8.10
2018-01-24T17:10:19.278Z,8.10
2018-01-24T17:12:47.400Z,8.10
2018-01-24T17:15:15.861Z,8.20
2018-01-24T17:17:43.977Z,8.20
2018-01-24T17:20:12.115Z,8.10
2018-01-24T17:22:40.993Z,8.10
2018-01-24T17:25:09.926Z,8.00
2018-01-24T17:27:38.054Z,8.00
2018-01-24T17:30:07.753Z,8.00
2018-01-24T17:32:36.638Z,8.00
2018-01-24T17:35:04.778Z,8.00
2018-01-24T17:37:32.911Z,8.00
2018-01-24T17:40:01.797Z,7.90
2018-01-24T17:42:29.920Z,7.90
2018-01-24T17:44:58.090Z,8.00
2018-01-24T17:47:26.201Z,7.90
2018-01-24T17:49:55.133Z,7.90
2018-01-24T17:52:23.252Z,7.90
2018-01-24T17:54:51.410Z,7.90
2018-01-24T17:57:19.536Z,7.90
2018-01-24T17:59:47.661Z,7.80
2018-01-24T18:02:15.851Z,7.90
2018-01-24T18:04:43.958Z,7.80
2018-01-24T18:07:12.695Z,7.90
2018-01-24T18:09:40.860Z,7.80
2018-01-24T18:12:08.977Z,7.70
2018-01-24T18:14:37.160Z,7.80
2018-01-24T18:17:05.285Z,7.90
2018-01-24T18:19:34.215Z,7.90
2018-01-24T18:22:02.345Z,7.90
2018-01-24T18:24:31.321Z,7.90
2018-01-24T18:26:59.470Z,7.90
2018-01-24T18:29:27.654Z,7.80
2018-01-24T18:31:55.819Z,7.80
2018-01-24T18:34:23.996Z,7.80
2018-01-24T18:36:52.134Z,7.90
2018-01-24T18:39:20.334Z,7.90
2018-01-24T18:41:48.937Z,7.90
2018-01-24T18:44:17.095Z,7.90
2018-01-24T18:46:45.298Z,7.90
2018-01-24T18:49:13.480Z,7.90
2018-01-24T18:51:42.406Z,7.90
2018-01-24T18:54:10.602Z,7.90
2018-01-24T18:56:38.769Z,7.90
2018-01-24T18:59:06.888Z,7.90
2018-01-24T19:01:35.764Z,7.90
2018-01-24T19:04:04.702Z,7.90
2018-01-24T19:06:32.848Z,7.90
2018-01-24T19:09:01.741Z,8.00
2018-01-24T19:11:30.029Z,8.00
2018-01-24T19:13:58.257Z,8.00
2018-01-24T19:16:26.424Z,8.00
2018-01-24T19:18:54.596Z,8.00
2018-01-24T19:21:22.741Z,8.00
2018-01-24T19:23:55.654Z,8.10
2018-01-24T19:26:26.369Z,8.00
2018-01-24T19:28:55.849Z,7.90
2018-01-24T19:31:25.166Z,7.90
2018-01-24T19:33:56.004Z,7.90
2018-01-24T19:36:25.130Z,7.90
2018-01-24T19:38:54.088Z,7.80
2018-01-24T19:41:24.774Z,7.80
2018-01-24T19:43:54.148Z,7.80
2018-01-24T19:46:24.941Z,7.80
2018-01-24T19:48:53.704Z,7.90
2018-01-24T19:51:23.165Z,7.90
2018-01-24T19:53:52.735Z,7.90
2018-01-24T19:56:21.381Z,7.90
2018-01-24T19:58:50.344Z,7.90
2018-01-24T20:01:19.891Z,7.80
2018-01-24T20:03:49.815Z,8.00
2018-01-24T20:06:20.983Z,8.00
2018-01-24T20:08:50.128Z,7.90
2018-01-24T20:11:19.218Z,8.10
2018-01-24T20:13:49.713Z,7.90
2018-01-24T20:16:19.090Z,7.90
2018-01-24T20:18:49.241Z,7.90
2018-01-24T20:21:17.471Z,7.90
2018-01-24T20:23:45.653Z,8.00
2018-01-24T20:26:13.761Z,7.90
2018-01-24T20:28:42.652Z,7.70
2018-01-24T20:31:11.868Z,7.70
2018-01-24T20:33:40.145Z,7.60
2018-01-24T20:36:08.267Z,7.50
2018-01-24T20:38:36.457Z,7.50
2018-01-24T20:41:04.662Z,7.40
2018-01-24T20:43:33.912Z,7.50
2018-01-24T20:46:02.028Z,7.40
2018-01-24T20:48:30.227Z,7.40
2018-01-24T20:50:58.405Z,7.40
2018-01-24T20:53:26.658Z,7.40
2018-01-24T20:55:54.802Z,7.40
2018-01-24T20:58:24.081Z,7.40
2018-01-24T21:00:52.257Z,7.30
2018-01-24T21:03:20.399Z,7.20
2018-01-24T21:05:48.559Z,7.20
2018-01-24T21:08:16.787Z,7.20
2018-01-24T21:10:44.993Z,7.20
2018-01-24T21:13:13.116Z,7.10
2018-01-24T21:15:41.246Z,7.20
2018-01-24T21:18:09.397Z,7.00
2018-01-24T21:20:37.533Z,7.10
2018-01-24T21:23:06.009Z,7.00
2018-01-24T21:25:34.231Z,7.10
2018-01-24T21:28:03.100Z,7.00
2018-01-24T21:30:43.277Z,7.00
2018-01-24T21:33:24.041Z,7.00
2018-01-24T21:36:02.081Z,7.00
2018-01-24T21:38:30.239Z,7.00
2018-01-24T21:40:58.418Z,7.00
2018-01-24T21:43:26.604Z,7.10
2018-01-24T21:45:54.822Z,7.00
2018-01-24T21:48:23.695Z,7.00
2018-01-24T21:50:52.652Z,7.00
2018-01-24T21:53:20.773Z,7.00
2018-01-24T21:55:49.674Z,6.90
2018-01-24T21:58:17.869Z,6.90
2018-01-24T22:00:46.068Z,6.80
2018-01-24T22:03:14.252Z,6.80
2018-01-24T22:05:42.427Z,6.80
2018-01-24T22:08:10.550Z,6.80
2018-01-24T22:10:38.805Z,6.80
2018-01-24T22:13:06.964Z,6.80
2018-01-24T22:15:35.887Z,6.80
2018-01-24T22:18:04.777Z,6.80
2018-01-24T22:20:32.896Z,6.70
2018-01-24T22:23:01.028Z,6.70
2018-01-24T22:25:29.144Z,6.80
2018-01-24T22:27:58.133Z,6.80
2018-01-24T22:30:26.247Z,6.80
2018-01-24T22:32:54.389Z,6.90
2018-01-24T22:35:23.285Z,6.80
2018-01-24T22:37:51.455Z,6.80
2018-01-24T22:40:19.600Z,6.70
2018-01-24T22:42:47.733Z,6.80
2018-01-24T22:45:15.856Z,6.70
2018-01-24T22:47:44.015Z,6.40
2018-01-24T22:50:12.186Z,6.60
2018-01-24T22:52:40.297Z,6.50
2018-01-24T22:55:08.485Z,6.60
2018-01-24T22:57:36.598Z,6.60
2018-01-24T23:00:04.729Z,6.40
2018-01-24T23:02:32.845Z,6.30
2018-01-24T23:05:01.745Z,6.50
2018-01-24T23:07:30.624Z,6.40
2018-01-24T23:09:59.527Z,6.50
2018-01-24T23:12:28.417Z,6.40
2018-01-24T23:14:57.327Z,6.60
2018-01-24T23:17:25.453Z,6.60
2018-01-24T23:19:53.573Z,6.70
2018-01-24T23:22:21.693Z,6.60
2018-01-24T23:24:49.819Z,6.80
2018-01-24T23:27:17.956Z,6.80
2018-01-24T23:29:46.920Z,6.70
2018-01-24T23:32:15.061Z,6.70
2018-01-24T23:34:43.181Z,6.80
2018-01-24T23:37:12.083Z,6.70
2018-01-24T23:39:41.045Z,6.40
2018-01-24T23:42:09.164Z,6.50
2018-01-24T23:44:37.284Z,6.60
2018-01-24T23:47:05.429Z,6.50
2018-01-24T23:49:33.552Z,6.60
2018-01-24T23:52:02.040Z,6.60
2018-01-24T23:54:30.168Z,6.40
2018-01-24T23:56:58.276Z,6.30
2018-01-24T23:59:27.169Z,6.40
